This is the latest recevied weather packets stored in our database for station/object HF3P-11. If no packets are shown the sender has not sent any weather packets the latest 1 day(s).
| Time | Temp. | Humidity | Pressure | Rain* | Wind** | Luminosity | Snow |
|---|---|---|---|---|---|---|---|
| 1778103309 | 10.56° C | 89% | 1000.7 hPa | 0 mm | - | - | - |
| 1778102099 | 10.56° C | 90% | 999.9 hPa | 0 mm | - | - | - |
| 1778101807 | 10.56° C | 89% | 999.8 hPa | 0 mm | - | - | - |
| 1778100899 | 10.56° C | 90% | 1000.1 hPa | 0 mm | - | - | - |
| 1778098207 | 11.11° C | 89% | 1000 hPa | 0 mm | - | - | - |
| 1778097307 | 11.11° C | 88% | 1000 hPa | 0 mm | - | - | - |
| 1778096707 | 11.67° C | 89% | 999.9 hPa | 0 mm | - | - | - |
| 1778096107 | 11.67° C | 88% | 999.8 hPa | 0 mm | - | - | - |
| 1778095199 | 11.67° C | 88% | 999.7 hPa | 0 mm | - | - | - |
| 1778094908 | 11.67° C | 87% | 999.6 hPa | 0 mm | - | - | - |
| 1778094610 | 11.67° C | 87% | 999.8 hPa | 0 mm | - | - | - |
| 1778093699 | 12.22° C | 85% | 999.5 hPa | 0 mm | - | - | - |
| 1778093399 | 12.22° C | 85% | 999.4 hPa | 0 mm | - | - | - |
| 1778092799 | 12.22° C | 84% | 999.4 hPa | 0 mm | - | - | - |
| 1778092507 | 12.22° C | 84% | 999.3 hPa | 0 mm | - | - | - |
| 1778090100 | 13.89° C | 81% | 998.8 hPa | 0 mm | - | - | - |
| 1778089199 | 14.44° C | 80% | 998.6 hPa | 0 mm | - | - | - |
| 1778088309 | 15° C | 79% | 998.7 hPa | 0 mm | - | - | - |
| 1778084708 | 17.22° C | 74% | 998.4 hPa | 0 mm | - | - | - |
| 1778083507 | 18.33° C | 74% | 998.3 hPa | 0 mm | - | - | - |
| 1778082899 | 18.33° C | 74% | 998.2 hPa | 0 mm | - | - | - |
| 1778082600 | 18.33° C | 73% | 998.3 hPa | 0 mm | - | - | - |
| 1778081108 | 18.89° C | 74% | 998 hPa | 0 mm | - | - | - |
| 1778080510 | 18.33° C | 73% | 997.9 hPa | 0 mm | - | - | - |
| 1778079308 | 18.89° C | 71% | 998 hPa | 0 mm | - | - | - |
* Rain latest hour (hover to see other rain measurements)
** Current wind speed in m/s (hover to see current wind gust speed)